sensor_id;sensor_type;location;lat;lon;timestamp;pressure;altitude;pressure_sealevel;temperature;humidity
3254;BME280;1639;42.804;23.342;2022-07-22T00:02:06;72074.78;;;-148.52;53.23
3254;BME280;1639;42.804;23.342;2022-07-22T00:04:32;72049.97;;;-148.52;52.72
3254;BME280;1639;42.804;23.342;2022-07-22T00:06:57;72025.16;;;-148.52;51.89
3254;BME280;1639;42.804;23.342;2022-07-22T00:09:23;72033.44;;;-148.52;52.17
3254;BME280;1639;42.804;23.342;2022-07-22T00:11:48;72045.84;;;-148.52;52.21
3254;BME280;1639;42.804;23.342;2022-07-22T00:14:14;72049.97;;;-148.52;52.59
3254;BME280;1639;42.804;23.342;2022-07-22T00:16:40;72039.63;;;-148.52;52.21
3254;BME280;1639;42.804;23.342;2022-07-22T00:19:05;72052.03;;;-148.52;52.42
3254;BME280;1639;42.804;23.342;2022-07-22T00:21:30;72058.25;;;-148.52;52.77
3254;BME280;1639;42.804;23.342;2022-07-22T00:23:56;72062.38;;;-148.52;52.94
3254;BME280;1639;42.804;23.342;2022-07-22T00:26:21;72052.03;;;-148.52;52.94
3254;BME280;1639;42.804;23.342;2022-07-22T00:28:47;72062.38;;;-148.52;52.95
3254;BME280;1639;42.804;23.342;2022-07-22T00:31:12;72068.59;;;-148.52;52.85
3254;BME280;1639;42.804;23.342;2022-07-22T00:33:37;72076.84;;;-148.52;52.91
3254;BME280;1639;42.804;23.342;2022-07-22T00:36:03;72062.38;;;-148.52;52.87
3254;BME280;1639;42.804;23.342;2022-07-22T00:38:29;72049.97;;;-148.52;52.21
3254;BME280;1639;42.804;23.342;2022-07-22T00:40:54;72062.38;;;-148.52;52.60
3254;BME280;1639;42.804;23.342;2022-07-22T00:43:20;72076.84;;;-148.52;52.80
3254;BME280;1639;42.804;23.342;2022-07-22T00:45:45;72089.25;;;-148.52;53.33
3254;BME280;1639;42.804;23.342;2022-07-22T00:48:10;72120.28;;;-148.52;54.51
3254;BME280;1639;42.804;23.342;2022-07-22T00:50:36;72140.94;;;-148.52;55.13
3254;BME280;1639;42.804;23.342;2022-07-22T00:53:02;72153.34;;;-148.52;55.76
3254;BME280;1639;42.804;23.342;2022-07-22T00:55:28;72174.03;;;-148.52;56.59
3254;BME280;1639;42.804;23.342;2022-07-22T00:57:54;72176.09;;;-148.52;56.90
3254;BME280;1639;42.804;23.342;2022-07-22T01:00:21;72190.56;;;-148.52;57.33
3254;BME280;1639;42.804;23.342;2022-07-22T01:02:47;72203.00;;;-148.52;57.34
3254;BME280;1639;42.804;23.342;2022-07-22T01:05:13;72174.03;;;-148.52;56.47
3254;BME280;1639;42.804;23.342;2022-07-22T01:07:38;72194.72;;;-148.52;57.00
3254;BME280;1639;42.804;23.342;2022-07-22T01:10:05;72194.72;;;-148.52;56.96
3254;BME280;1639;42.804;23.342;2022-07-22T01:12:31;72190.56;;;-148.52;57.17
3254;BME280;1639;42.804;23.342;2022-07-22T01:14:57;72203.00;;;-148.52;57.15
3254;BME280;1639;42.804;23.342;2022-07-22T01:17:22;72194.72;;;-148.52;56.79
3254;BME280;1639;42.804;23.342;2022-07-22T01:19:48;72182.31;;;-148.52;56.55
3254;BME280;1639;42.804;23.342;2022-07-22T01:22:14;72190.56;;;-148.52;56.94
3254;BME280;1639;42.804;23.342;2022-07-22T01:24:40;72231.94;;;-148.52;57.66
3254;BME280;1639;42.804;23.342;2022-07-22T01:27:05;72246.41;;;-148.52;58.37
3254;BME280;1639;42.804;23.342;2022-07-22T01:29:31;72227.78;;;-148.52;57.65
3254;BME280;1639;42.804;23.342;2022-07-22T01:31:57;72227.78;;;-148.52;57.85
3254;BME280;1639;42.804;23.342;2022-07-22T01:34:22;72227.78;;;-148.52;57.49
3254;BME280;1639;42.804;23.342;2022-07-22T01:36:48;72248.47;;;-148.52;57.99
3254;BME280;1639;42.804;23.342;2022-07-22T01:39:13;72240.22;;;-148.52;58.31
3254;BME280;1639;42.804;23.342;2022-07-22T01:41:39;72252.63;;;-148.52;58.18
3254;BME280;1639;42.804;23.342;2022-07-22T01:44:05;72242.28;;;-148.52;58.14
3254;BME280;1639;42.804;23.342;2022-07-22T01:46:30;72219.53;;;-148.52;56.96
3254;BME280;1639;42.804;23.342;2022-07-22T01:48:56;72242.28;;;-148.52;57.02
3254;BME280;1639;42.804;23.342;2022-07-22T01:51:22;72267.09;;;-148.52;57.82
3254;BME280;1639;42.804;23.342;2022-07-22T01:53:47;72285.69;;;-148.52;58.12
3254;BME280;1639;42.804;23.342;2022-07-22T01:56:13;72273.28;;;-148.52;58.05
3254;BME280;1639;42.804;23.342;2022-07-22T01:58:39;72273.28;;;-148.52;57.70
3254;BME280;1639;42.804;23.342;2022-07-22T02:01:05;72273.28;;;-148.52;57.87
3254;BME280;1639;42.804;23.342;2022-07-22T02:03:30;72265.03;;;-148.52;57.63
3254;BME280;1639;42.804;23.342;2022-07-22T02:05:55;72269.16;;;-148.52;57.72
3254;BME280;1639;42.804;23.342;2022-07-22T02:08:22;72265.03;;;-148.52;57.78
3254;BME280;1639;42.804;23.342;2022-07-22T02:10:47;72265.03;;;-148.52;57.51
3254;BME280;1639;42.804;23.342;2022-07-22T02:13:13;72277.44;;;-148.52;57.76
3254;BME280;1639;42.804;23.342;2022-07-22T02:15:38;72287.75;;;-148.52;58.01
3254;BME280;1639;42.804;23.342;2022-07-22T02:18:11;72296.03;;;-148.52;58.22
3254;BME280;1639;42.804;23.342;2022-07-22T02:20:37;72279.50;;;-148.52;57.41
3254;BME280;1639;42.804;23.342;2022-07-22T02:23:03;72298.09;;;-148.52;57.67
3254;BME280;1639;42.804;23.342;2022-07-22T02:25:28;72287.75;;;-148.52;57.70
3254;BME280;1639;42.804;23.342;2022-07-22T02:27:54;72291.91;;;-148.52;57.55
3254;BME280;1639;42.804;23.342;2022-07-22T02:30:19;72291.91;;;-148.52;57.78
3254;BME280;1639;42.804;23.342;2022-07-22T02:32:44;72308.44;;;-148.52;57.59
3254;BME280;1639;42.804;23.342;2022-07-22T02:35:10;72302.25;;;-148.52;57.67
3254;BME280;1639;42.804;23.342;2022-07-22T02:37:35;72347.72;;;-148.52;58.47
3254;BME280;1639;42.804;23.342;2022-07-22T02:40:03;72339.47;;;-148.52;58.64
3254;BME280;1639;42.804;23.342;2022-07-22T02:42:29;72335.31;;;-148.52;58.20
3254;BME280;1639;42.804;23.342;2022-07-22T02:44:54;72331.19;;;-148.52;57.76
3254;BME280;1639;42.804;23.342;2022-07-22T02:47:20;72335.31;;;-148.52;57.86
3254;BME280;1639;42.804;23.342;2022-07-22T02:49:45;72356.00;;;-148.52;58.67
3254;BME280;1639;42.804;23.342;2022-07-22T02:52:10;72358.06;;;-148.52;58.50
3254;BME280;1639;42.804;23.342;2022-07-22T02:54:36;72364.28;;;-148.52;58.58
3254;BME280;1639;42.804;23.342;2022-07-22T02:57:01;72347.72;;;-148.52;58.48
3254;BME280;1639;42.804;23.342;2022-07-22T02:59:27;72356.00;;;-148.52;58.29
3254;BME280;1639;42.804;23.342;2022-07-22T03:01:52;72389.09;;;-148.52;59.27
3254;BME280;1639;42.804;23.342;2022-07-22T03:04:17;72372.56;;;-148.52;59.08
3254;BME280;1639;42.804;23.342;2022-07-22T03:06:43;72397.38;;;-148.52;59.44
3254;BME280;1639;42.804;23.342;2022-07-22T03:09:08;72387.03;;;-148.52;59.40
3254;BME280;1639;42.804;23.342;2022-07-22T03:11:33;72413.91;;;-148.52;60.34
3254;BME280;1639;42.804;23.342;2022-07-22T03:13:59;72399.44;;;-148.52;60.03
3254;BME280;1639;42.804;23.342;2022-07-22T03:16:24;72426.31;;;-148.52;60.40
3254;BME280;1639;42.804;23.342;2022-07-22T03:18:49;72424.25;;;-148.52;60.77
3254;BME280;1639;42.804;23.342;2022-07-22T03:21:15;72436.66;;;-148.52;60.90
3254;BME280;1639;42.804;23.342;2022-07-22T03:23:40;72426.31;;;-148.52;60.74
3254;BME280;1639;42.804;23.342;2022-07-22T03:26:06;72432.53;;;-148.52;60.44
3254;BME280;1639;42.804;23.342;2022-07-22T03:28:32;72449.06;;;-148.52;60.55
3254;BME280;1639;42.804;23.342;2022-07-22T03:30:57;72453.19;;;-148.52;60.66
3254;BME280;1639;42.804;23.342;2022-07-22T03:33:23;72467.66;;;-148.52;61.05
3254;BME280;1639;42.804;23.342;2022-07-22T03:35:48;72475.94;;;-148.52;61.69
3254;BME280;1639;42.804;23.342;2022-07-22T03:38:13;72492.50;;;-148.52;62.43
3254;BME280;1639;42.804;23.342;2022-07-22T03:40:39;72488.34;;;-148.52;62.88
3254;BME280;1639;42.804;23.342;2022-07-22T03:43:04;72490.41;;;-148.52;63.09
3254;BME280;1639;42.804;23.342;2022-07-22T03:45:30;72492.50;;;-148.52;62.93
3254;BME280;1639;42.804;23.342;2022-07-22T03:47:55;72469.75;;;-148.52;62.92
3254;BME280;1639;42.804;23.342;2022-07-22T03:50:23;72455.25;;;-148.52;62.25
3254;BME280;1639;42.804;23.342;2022-07-22T03:52:48;72457.34;;;-148.52;62.55
3254;BME280;1639;42.804;23.342;2022-07-22T03:55:14;72436.66;;;-148.52;62.25
3254;BME280;1639;42.804;23.342;2022-07-22T03:57:39;72418.03;;;-148.52;61.54
3254;BME280;1639;42.804;23.342;2022-07-22T04:00:05;72395.28;;;-148.52;61.29
3254;BME280;1639;42.804;23.342;2022-07-22T04:02:31;72380.81;;;-148.52;60.92
3254;BME280;1639;42.804;23.342;2022-07-22T04:04:56;72368.41;;;-148.52;61.20
3254;BME280;1639;42.804;23.342;2022-07-22T04:07:22;72362.22;;;-148.52;61.31
3254;BME280;1639;42.804;23.342;2022-07-22T04:09:47;72351.88;;;-148.52;61.17
3254;BME280;1639;42.804;23.342;2022-07-22T04:12:13;72339.47;;;-148.52;60.96
3254;BME280;1639;42.804;23.342;2022-07-22T04:14:38;72314.66;;;-148.52;60.13
3254;BME280;1639;42.804;23.342;2022-07-22T04:17:04;72287.75;;;-148.52;59.76
3254;BME280;1639;42.804;23.342;2022-07-22T04:19:29;72258.81;;;-148.52;58.97
3254;BME280;1639;42.804;23.342;2022-07-22T04:21:54;72244.34;;;-148.52;58.36
3254;BME280;1639;42.804;23.342;2022-07-22T04:24:20;72234.00;;;-148.52;57.44
3254;BME280;1639;42.804;23.342;2022-07-22T04:26:45;72231.94;;;-148.52;56.87
3254;BME280;1639;42.804;23.342;2022-07-22T04:29:11;72236.06;;;-148.52;56.69
3254;BME280;1639;42.804;23.342;2022-07-22T04:31:36;72252.63;;;-148.52;57.09
3254;BME280;1639;42.804;23.342;2022-07-22T04:34:01;72244.34;;;-148.52;57.72
3254;BME280;1639;42.804;23.342;2022-07-22T04:36:27;72231.94;;;-148.52;57.23
3254;BME280;1639;42.804;23.342;2022-07-22T04:38:52;72219.53;;;-148.52;56.33
3254;BME280;1639;42.804;23.342;2022-07-22T04:41:18;72219.53;;;-148.52;57.13
3254;BME280;1639;42.804;23.342;2022-07-22T04:43:43;72207.13;;;-148.52;57.03
3254;BME280;1639;42.804;23.342;2022-07-22T04:46:08;72186.44;;;-148.52;56.49
3254;BME280;1639;42.804;23.342;2022-07-22T04:48:34;72192.66;;;-148.52;55.87
3254;BME280;1639;42.804;23.342;2022-07-22T04:51:00;72186.44;;;-148.52;56.51
3254;BME280;1639;42.804;23.342;2022-07-22T04:53:27;72171.97;;;-148.52;55.79
3254;BME280;1639;42.804;23.342;2022-07-22T04:55:52;72174.03;;;-148.52;55.55
3254;BME280;1639;42.804;23.342;2022-07-22T04:58:18;72159.56;;;-148.52;54.60
3254;BME280;1639;42.804;23.342;2022-07-22T05:00:43;72157.50;;;-148.52;54.95
3254;BME280;1639;42.804;23.342;2022-07-22T05:03:09;72140.94;;;-148.52;54.85
3254;BME280;1639;42.804;23.342;2022-07-22T05:05:34;72132.69;;;-148.52;54.22
3254;BME280;1639;42.804;23.342;2022-07-22T05:08:00;72107.88;;;-148.52;54.51
3254;BME280;1639;42.804;23.342;2022-07-22T05:10:25;72078.91;;;-148.52;54.50
3254;BME280;1639;42.804;23.342;2022-07-22T05:12:51;72047.91;;;-148.52;53.41
3254;BME280;1639;42.804;23.342;2022-07-22T05:15:17;72018.94;;;-148.52;53.24
3254;BME280;1639;42.804;23.342;2022-07-22T05:17:42;71987.94;;;-148.52;52.39
3254;BME280;1639;42.804;23.342;2022-07-22T05:20:08;71967.25;;;-148.52;51.63
3254;BME280;1639;42.804;23.342;2022-07-22T05:22:34;71950.72;;;-148.52;51.48
3254;BME280;1639;42.804;23.342;2022-07-22T05:24:59;71936.25;;;-148.52;51.71
3254;BME280;1639;42.804;23.342;2022-07-22T05:27:24;71930.03;;;-148.52;51.91
3254;BME280;1639;42.804;23.342;2022-07-22T05:29:50;71919.72;;;-148.52;51.19
3254;BME280;1639;42.804;23.342;2022-07-22T05:32:15;71923.84;;;-148.52;50.53
3254;BME280;1639;42.804;23.342;2022-07-22T05:34:41;71901.09;;;-148.52;50.65
3254;BME280;1639;42.804;23.342;2022-07-22T05:37:06;71907.31;;;-148.52;50.39
3254;BME280;1639;42.804;23.342;2022-07-22T05:39:32;71892.81;;;-148.52;50.11
3254;BME280;1639;42.804;23.342;2022-07-22T05:41:57;71876.28;;;-148.52;50.53
3254;BME280;1639;42.804;23.342;2022-07-22T05:44:23;71863.88;;;-148.52;50.00
3254;BME280;1639;42.804;23.342;2022-07-22T05:46:48;71832.88;;;-148.52;50.88
3254;BME280;1639;42.804;23.342;2022-07-22T05:49:14;71818.38;;;-148.52;49.84
3254;BME280;1639;42.804;23.342;2022-07-22T05:51:39;71830.81;;;-148.52;48.93
3254;BME280;1639;42.804;23.342;2022-07-22T05:54:05;71820.47;;;-148.52;49.14
3254;BME280;1639;42.804;23.342;2022-07-22T05:56:30;71791.50;;;-148.52;49.57
3254;BME280;1639;42.804;23.342;2022-07-22T05:58:55;71785.31;;;-148.52;48.06
3254;BME280;1639;42.804;23.342;2022-07-22T06:01:22;71756.38;;;-148.52;47.98
3254;BME280;1639;42.804;23.342;2022-07-22T06:03:47;71737.75;;;-148.52;47.86
3254;BME280;1639;42.804;23.342;2022-07-22T06:06:13;71710.88;;;-148.52;47.60
3254;BME280;1639;42.804;23.342;2022-07-22T06:08:38;71710.88;;;-148.52;47.65
3254;BME280;1639;42.804;23.342;2022-07-22T06:11:03;71686.06;;;-148.52;46.53
3254;BME280;1639;42.804;23.342;2022-07-22T06:13:29;71681.94;;;-148.52;46.46
3254;BME280;1639;42.804;23.342;2022-07-22T06:15:54;71653.00;;;-148.52;45.10
3254;BME280;1639;42.804;23.342;2022-07-22T06:18:20;71621.97;;;-148.52;44.54
3254;BME280;1639;42.804;23.342;2022-07-22T06:20:45;71586.81;;;-148.52;44.25
3254;BME280;1639;42.804;23.342;2022-07-22T06:23:11;71557.88;;;-148.52;44.55
3254;BME280;1639;42.804;23.342;2022-07-22T06:25:36;71522.72;;;-148.52;43.61
3254;BME280;1639;42.804;23.342;2022-07-22T06:28:02;71500.00;;;-148.52;42.18
3254;BME280;1639;42.804;23.342;2022-07-22T06:30:27;71479.31;;;-148.52;41.62
3254;BME280;1639;42.804;23.342;2022-07-22T06:32:53;71466.91;;;-148.52;42.14
3254;BME280;1639;42.804;23.342;2022-07-22T06:35:19;71431.78;;;-148.52;41.00
3254;BME280;1639;42.804;23.342;2022-07-22T06:37:44;71417.28;;;-148.52;40.42
3254;BME280;1639;42.804;23.342;2022-07-22T06:40:10;71392.50;;;-148.52;39.96
3254;BME280;1639;42.804;23.342;2022-07-22T06:42:36;71394.56;;;-148.52;39.02
3254;BME280;1639;42.804;23.342;2022-07-22T06:45:01;71369.75;;;-148.52;39.54
3254;BME280;1639;42.804;23.342;2022-07-22T06:47:28;71347.00;;;-148.52;39.12
3254;BME280;1639;42.804;23.342;2022-07-22T06:49:54;71340.81;;;-148.52;38.88
3254;BME280;1639;42.804;23.342;2022-07-22T06:52:19;71326.34;;;-148.52;38.62
3254;BME280;1639;42.804;23.342;2022-07-22T06:54:45;71301.53;;;-148.52;37.05
3254;BME280;1639;42.804;23.342;2022-07-22T06:57:10;71284.97;;;-148.52;37.84
3254;BME280;1639;42.804;23.342;2022-07-22T06:59:36;71237.44;;;-148.52;37.46
3254;BME280;1639;42.804;23.342;2022-07-22T07:02:01;71198.16;;;-148.52;36.40
3254;BME280;1639;42.804;23.342;2022-07-22T07:04:27;71165.09;;;-148.52;35.14
3254;BME280;1639;42.804;23.342;2022-07-22T07:06:52;71125.81;;;-148.52;35.18
3254;BME280;1639;42.804;23.342;2022-07-22T07:09:18;71098.94;;;-148.52;34.45
3254;BME280;1639;42.804;23.342;2022-07-22T07:11:43;71055.53;;;-148.52;33.87
3254;BME280;1639;42.804;23.342;2022-07-22T07:14:08;71007.97;;;-148.52;33.89
3254;BME280;1639;42.804;23.342;2022-07-22T07:16:34;70964.56;;;-148.52;33.23
3254;BME280;1639;42.804;23.342;2022-07-22T07:18:59;70929.41;;;-148.52;32.86
3254;BME280;1639;42.804;23.342;2022-07-22T07:21:25;70910.81;;;-148.52;32.82
3254;BME280;1639;42.804;23.342;2022-07-22T07:23:51;70871.53;;;-148.52;31.87
3254;BME280;1639;42.804;23.342;2022-07-22T07:26:16;70842.59;;;-148.52;31.53
3254;BME280;1639;42.804;23.342;2022-07-22T07:28:41;70867.41;;;-148.52;31.91
3254;BME280;1639;42.804;23.342;2022-07-22T07:31:07;70836.41;;;-148.52;31.81
3254;BME280;1639;42.804;23.342;2022-07-22T07:33:33;70817.78;;;-148.52;31.70
3254;BME280;1639;42.804;23.342;2022-07-22T07:36:00;70817.78;;;-148.52;32.06
3254;BME280;1639;42.804;23.342;2022-07-22T07:38:25;70776.47;;;-148.52;32.32
3254;BME280;1639;42.804;23.342;2022-07-22T07:40:50;70747.50;;;-148.52;31.34
3254;BME280;1639;42.804;23.342;2022-07-22T07:43:16;70743.38;;;-148.52;30.72
3254;BME280;1639;42.804;23.342;2022-07-22T07:45:41;70722.72;;;-148.52;31.01
3254;BME280;1639;42.804;23.342;2022-07-22T07:48:07;70689.63;;;-148.52;31.14
3254;BME280;1639;42.804;23.342;2022-07-22T07:50:32;70677.25;;;-148.52;30.58
3254;BME280;1639;42.804;23.342;2022-07-22T07:52:58;70668.97;;;-148.52;30.30
3254;BME280;1639;42.804;23.342;2022-07-22T07:55:24;70656.56;;;-148.52;29.89
3254;BME280;1639;42.804;23.342;2022-07-22T07:57:50;70654.50;;;-148.52;29.03
3254;BME280;1639;42.804;23.342;2022-07-22T08:00:17;70625.56;;;-148.52;29.71
3254;BME280;1639;42.804;23.342;2022-07-22T08:02:43;70594.56;;;-148.52;29.10
3254;BME280;1639;42.804;23.342;2022-07-22T08:05:09;70592.50;;;-148.52;29.47
3254;BME280;1639;42.804;23.342;2022-07-22T08:07:36;70561.50;;;-148.52;29.53
3254;BME280;1639;42.804;23.342;2022-07-22T08:10:02;70528.41;;;-148.52;29.24
3254;BME280;1639;42.804;23.342;2022-07-22T08:12:27;70495.34;;;-148.52;29.78
3254;BME280;1639;42.804;23.342;2022-07-22T08:14:53;70482.94;;;-148.52;28.46
3254;BME280;1639;42.804;23.342;2022-07-22T08:17:18;70470.53;;;-148.52;28.05
3254;BME280;1639;42.804;23.342;2022-07-22T08:19:44;70464.34;;;-148.52;28.15
3254;BME280;1639;42.804;23.342;2022-07-22T08:22:09;70447.81;;;-148.52;29.02
3254;BME280;1639;42.804;23.342;2022-07-22T08:24:34;70437.47;;;-148.52;28.38
3254;BME280;1639;42.804;23.342;2022-07-22T08:27:00;70420.94;;;-148.52;27.86
3254;BME280;1639;42.804;23.342;2022-07-22T08:29:25;70404.41;;;-148.52;27.23
3254;BME280;1639;42.804;23.342;2022-07-22T08:31:51;70387.88;;;-148.52;27.46
3254;BME280;1639;42.804;23.342;2022-07-22T08:34:16;70373.41;;;-148.52;27.16
3254;BME280;1639;42.804;23.342;2022-07-22T08:36:42;70361.00;;;-148.52;26.74
3254;BME280;1639;42.804;23.342;2022-07-22T08:39:07;70356.88;;;-148.52;27.05
3254;BME280;1639;42.804;23.342;2022-07-22T08:41:35;70334.13;;;-148.52;26.99
3254;BME280;1639;42.804;23.342;2022-07-22T08:44:03;70317.59;;;-148.52;26.78
3254;BME280;1639;42.804;23.342;2022-07-22T08:46:29;70336.19;;;-148.52;27.03
3254;BME280;1639;42.804;23.342;2022-07-22T08:48:54;70319.66;;;-148.52;27.13
3254;BME280;1639;42.804;23.342;2022-07-22T08:51:20;70311.41;;;-148.52;26.88
3254;BME280;1639;42.804;23.342;2022-07-22T08:53:46;70332.06;;;-148.52;26.19
3254;BME280;1639;42.804;23.342;2022-07-22T08:56:14;70334.13;;;-148.52;26.89
3254;BME280;1639;42.804;23.342;2022-07-22T08:58:41;70305.19;;;-148.52;27.02
3254;BME280;1639;42.804;23.342;2022-07-22T09:01:11;70332.06;;;-148.52;26.34
3254;BME280;1639;42.804;23.342;2022-07-22T09:06:15;70303.13;;;-148.52;27.01
3254;BME280;1639;42.804;23.342;2022-07-22T09:09:00;70294.84;;;-148.52;25.97
3254;BME280;1639;42.804;23.342;2022-07-22T09:11:28;70292.78;;;-148.52;25.91
3254;BME280;1639;42.804;23.342;2022-07-22T09:13:56;70383.72;;;-148.52;26.02
3254;BME280;1639;42.804;23.342;2022-07-22T09:16:42;70449.88;;;-148.52;27.31
3254;BME280;1639;42.804;23.342;2022-07-22T09:19:08;70406.47;;;-148.52;27.43
3254;BME280;1639;42.804;23.342;2022-07-22T09:21:36;70356.88;;;-148.52;27.30
3254;BME280;1639;42.804;23.342;2022-07-22T09:24:03;70371.34;;;-148.52;25.06
3254;BME280;1639;42.804;23.342;2022-07-22T09:26:34;70369.25;;;-148.52;24.84
3254;BME280;1639;42.804;23.342;2022-07-22T09:29:01;70385.81;;;-148.52;24.67
3254;BME280;1639;42.804;23.342;2022-07-22T09:31:33;70427.13;;;-148.52;24.73
3254;BME280;1639;42.804;23.342;2022-07-22T09:33:59;70387.88;;;-148.52;24.87
3254;BME280;1639;42.804;23.342;2022-07-22T09:36:25;70379.59;;;-148.52;24.99
3254;BME280;1639;42.804;23.342;2022-07-22T09:38:51;70381.66;;;-148.52;24.62
3254;BME280;1639;42.804;23.342;2022-07-22T09:41:17;70371.34;;;-148.52;24.63
3254;BME280;1639;42.804;23.342;2022-07-22T09:43:42;70375.47;;;-148.52;24.69
3254;BME280;1639;42.804;23.342;2022-07-22T09:46:08;70429.19;;;-148.52;25.38
3254;BME280;1639;42.804;23.342;2022-07-22T09:48:36;70423.00;;;-148.52;24.95
3254;BME280;1639;42.804;23.342;2022-07-22T09:51:01;70418.88;;;-148.52;24.99
3254;BME280;1639;42.804;23.342;2022-07-22T09:53:28;70389.94;;;-148.52;24.78
3254;BME280;1639;42.804;23.342;2022-07-22T09:55:55;70387.88;;;-148.52;25.32
3254;BME280;1639;42.804;23.342;2022-07-22T09:58:22;70435.41;;;-148.52;24.97
3254;BME280;1639;42.804;23.342;2022-07-22T10:00:47;70472.59;;;-148.52;25.03
3254;BME280;1639;42.804;23.342;2022-07-22T10:03:33;70462.28;;;-148.52;25.53
3254;BME280;1639;42.804;23.342;2022-07-22T10:06:03;70437.47;;;-148.52;25.03
3254;BME280;1639;42.804;23.342;2022-07-22T10:08:31;70443.66;;;-148.52;25.95
3254;BME280;1639;42.804;23.342;2022-07-22T10:11:00;70429.19;;;-148.52;25.07
3254;BME280;1639;42.804;23.342;2022-07-22T10:13:26;70420.94;;;-148.52;24.59
3254;BME280;1639;42.804;23.342;2022-07-22T10:15:52;70367.19;;;-148.52;25.31
3254;BME280;1639;42.804;23.342;2022-07-22T10:18:18;70330.00;;;-148.52;24.63
3254;BME280;1639;42.804;23.342;2022-07-22T10:20:45;70301.06;;;-148.52;24.84
3254;BME280;1639;42.804;23.342;2022-07-22T10:23:13;70392.00;;;-148.52;24.41
3254;BME280;1639;42.804;23.342;2022-07-22T10:25:49;70404.41;;;-148.52;24.81
3254;BME280;1639;42.804;23.342;2022-07-22T10:28:27;70383.72;;;-148.52;24.52
3254;BME280;1639;42.804;23.342;2022-07-22T10:31:07;70404.41;;;-148.52;24.44
3254;BME280;1639;42.804;23.342;2022-07-22T10:33:39;70377.53;;;-148.52;24.88
3254;BME280;1639;42.804;23.342;2022-07-22T10:36:05;70344.47;;;-148.52;24.71
3254;BME280;1639;42.804;23.342;2022-07-22T10:38:31;70377.53;;;-148.52;24.54
3254;BME280;1639;42.804;23.342;2022-07-22T10:43:27;70414.72;;;-148.52;24.92
3254;BME280;1639;42.804;23.342;2022-07-22T10:46:00;70389.94;;;-148.52;25.77
3254;BME280;1639;42.804;23.342;2022-07-22T10:51:39;70377.53;;;-148.52;24.62
3254;BME280;1639;42.804;23.342;2022-07-22T10:54:00;70361.00;;;-148.52;24.92
3254;BME280;1639;42.804;23.342;2022-07-22T10:56:34;70334.13;;;-148.52;24.59
3254;BME280;1639;42.804;23.342;2022-07-22T10:59:15;70282.47;;;-148.52;24.50
3254;BME280;1639;42.804;23.342;2022-07-22T11:01:45;70274.19;;;-148.52;24.60
3254;BME280;1639;42.804;23.342;2022-07-22T11:04:22;70253.53;;;-148.52;24.58
3254;BME280;1639;42.804;23.342;2022-07-22T11:06:53;70226.66;;;-148.52;24.05
3254;BME280;1639;42.804;23.342;2022-07-22T11:09:21;70255.59;;;-148.52;24.11
3254;BME280;1639;42.804;23.342;2022-07-22T11:14:16;70321.72;;;-148.52;24.03
3254;BME280;1639;42.804;23.342;2022-07-22T11:16:43;70354.78;;;-148.52;24.43
3254;BME280;1639;42.804;23.342;2022-07-22T11:19:09;70348.59;;;-148.52;25.06
3254;BME280;1639;42.804;23.342;2022-07-22T11:21:34;70313.47;;;-148.52;24.68
3254;BME280;1639;42.804;23.342;2022-07-22T11:24:02;70334.13;;;-148.52;25.12
3254;BME280;1639;42.804;23.342;2022-07-22T11:26:40;70358.94;;;-148.52;24.88
3254;BME280;1639;42.804;23.342;2022-07-22T11:29:07;70379.59;;;-148.52;24.91
3254;BME280;1639;42.804;23.342;2022-07-22T11:31:33;70404.41;;;-148.52;24.67
3254;BME280;1639;42.804;23.342;2022-07-22T11:34:25;70396.13;;;-148.52;24.97
3254;BME280;1639;42.804;23.342;2022-07-22T11:36:52;70418.88;;;-148.52;25.40
3254;BME280;1639;42.804;23.342;2022-07-22T11:39:27;70406.47;;;-148.52;25.71
3254;BME280;1639;42.804;23.342;2022-07-22T11:41:54;70371.34;;;-148.52;25.09
3254;BME280;1639;42.804;23.342;2022-07-22T11:44:21;70394.06;;;-148.52;24.93
3254;BME280;1639;42.804;23.342;2022-07-22T11:46:47;70458.13;;;-148.52;25.36
3254;BME280;1639;42.804;23.342;2022-07-22T11:49:16;70423.00;;;-148.52;26.05
3254;BME280;1639;42.804;23.342;2022-07-22T11:51:42;70416.81;;;-148.52;25.59
3254;BME280;1639;42.804;23.342;2022-07-22T11:54:08;70433.34;;;-148.52;25.45
3254;BME280;1639;42.804;23.342;2022-07-22T11:56:34;70387.88;;;-148.52;25.31
3254;BME280;1639;42.804;23.342;2022-07-22T11:58:59;70389.94;;;-148.52;25.49
3254;BME280;1639;42.804;23.342;2022-07-22T12:01:31;70396.13;;;-148.52;25.72
3254;BME280;1639;42.804;23.342;2022-07-22T12:04:00;70392.00;;;-148.52;25.27
3254;BME280;1639;42.804;23.342;2022-07-22T12:06:27;70361.00;;;-148.52;25.08
3254;BME280;1639;42.804;23.342;2022-07-22T12:09:02;70327.94;;;-148.52;24.56
3254;BME280;1639;42.804;23.342;2022-07-22T12:11:28;70354.78;;;-148.52;24.79
3254;BME280;1639;42.804;23.342;2022-07-22T12:13:54;70344.47;;;-148.52;25.49
3254;BME280;1639;42.804;23.342;2022-07-22T12:16:28;70340.31;;;-148.52;24.58
3254;BME280;1639;42.804;23.342;2022-07-22T12:21:26;70356.88;;;-148.52;24.82
3254;BME280;1639;42.804;23.342;2022-07-22T12:24:02;70406.47;;;-148.52;24.82
3254;BME280;1639;42.804;23.342;2022-07-22T12:31:45;70445.75;;;-148.52;25.22
3254;BME280;1639;42.804;23.342;2022-07-22T12:34:11;70464.34;;;-148.52;25.28
3254;BME280;1639;42.804;23.342;2022-07-22T12:36:37;70441.59;;;-148.52;25.18
3254;BME280;1639;42.804;23.342;2022-07-22T12:39:18;70420.94;;;-148.52;25.75
3254;BME280;1639;42.804;23.342;2022-07-22T12:41:50;70410.59;;;-148.52;24.78
3254;BME280;1639;42.804;23.342;2022-07-22T12:44:25;70381.66;;;-148.52;24.82
3254;BME280;1639;42.804;23.342;2022-07-22T12:46:55;70400.25;;;-148.52;25.29
3254;BME280;1639;42.804;23.342;2022-07-22T12:49:24;70383.72;;;-148.52;25.37
3254;BME280;1639;42.804;23.342;2022-07-22T12:52:12;70346.53;;;-148.52;25.33
3254;BME280;1639;42.804;23.342;2022-07-22T12:54:39;70330.00;;;-148.52;24.85
3254;BME280;1639;42.804;23.342;2022-07-22T12:57:06;70325.84;;;-148.52;24.84
3254;BME280;1639;42.804;23.342;2022-07-22T12:59:32;70336.19;;;-148.52;24.77
3254;BME280;1639;42.804;23.342;2022-07-22T13:01:58;70346.53;;;-148.52;25.04
3254;BME280;1639;42.804;23.342;2022-07-22T13:04:23;70358.94;;;-148.52;24.37
3254;BME280;1639;42.804;23.342;2022-07-22T13:06:49;70323.78;;;-148.52;24.58